Time;durP1;ratioP1;P1;durP2;ratioP2;P2;SDS_P1;SDS_P2;PMS_P1;PMS_P2;Temp;Humidity;BMP_temperature;BMP_pressure;BME280_temperature;BME280_humidity;BME280_pressure;Samples;Min_cycle;Max_cycle;Signal;HPM_P1;HPM_P2
2022/07/13 00:01:30;;;;;;;3.13;2.05;;;;;;;20.09;49.02;100562.00;10467975;28;20536;-66
2022/07/13 00:06:32;;;;;;;2.83;2.00;;;;;;;19.93;49.43;100559.03;10471615;28;20049;-66
2022/07/13 00:11:34;;;;;;;4.85;2.00;;;;;;;19.88;49.84;100559.44;10470435;28;20154;-66
2022/07/13 00:16:35;;;;;;;5.93;2.03;;;;;;;19.77;49.84;100556.00;10471444;28;20150;-67
2022/07/13 00:21:37;;;;;;;3.42;1.90;;;;;;;19.51;50.57;100571.56;10470425;28;20439;-66
2022/07/13 00:26:39;;;;;;;4.45;1.90;;;;;;;19.76;49.99;100560.50;10469268;28;20483;-66
2022/07/13 00:31:42;;;;;;;4.55;2.10;;;;;;;19.75;50.34;100553.50;10471048;28;20080;-66
2022/07/13 00:36:44;;;;;;;3.97;2.10;;;;;;;19.54;50.95;100562.50;10468745;28;20659;-66
2022/07/13 00:41:47;;;;;;;4.68;2.10;;;;;;;19.31;51.13;100561.84;10471271;28;20547;-66
2022/07/13 00:46:54;;;;;;;3.65;2.20;;;;;;;19.36;51.29;100552.50;10470427;28;20048;-66
2022/07/13 00:51:56;;;;;;;3.72;2.00;;;;;;;19.36;51.30;100560.44;10470089;28;20463;-66
2022/07/13 00:57:01;;;;;;;5.07;2.20;;;;;;;19.60;50.73;100548.69;10469774;28;20136;-66
2022/07/13 01:02:02;;;;;;;5.18;2.10;;;;;;;19.56;50.87;100544.63;10470001;28;20188;-66
2022/07/13 01:07:05;;;;;;;2.85;1.98;;;;;;;19.45;51.48;100543.75;10469062;28;20157;-66
2022/07/13 01:12:06;;;;;;;4.05;2.20;;;;;;;19.19;52.09;100549.63;10468878;28;20149;-67
2022/07/13 01:17:09;;;;;;;4.55;2.10;;;;;;;19.04;52.28;100546.47;10467575;28;20088;-67
2022/07/13 01:22:16;;;;;;;3.90;2.30;;;;;;;19.04;52.51;100550.91;10470076;28;20139;-66
2022/07/13 01:27:18;;;;;;;4.38;2.17;;;;;;;19.20;52.13;100544.19;10466163;28;20539;-66
2022/07/13 01:32:20;;;;;;;4.07;1.88;;;;;;;19.27;52.11;100536.53;10449113;28;20283;-67
2022/07/13 01:37:21;;;;;;;4.43;2.00;;;;;;;19.31;52.18;100530.84;10447655;28;20143;-66
2022/07/13 01:42:23;;;;;;;3.22;2.20;;;;;;;19.26;52.19;100519.78;10468442;28;20143;-66
2022/07/13 01:47:25;;;;;;;2.97;1.88;;;;;;;19.26;52.11;100513.63;10467089;28;20139;-66
2022/07/13 01:52:26;;;;;;;6.10;2.17;;;;;;;19.32;51.99;100513.09;10468351;28;20555;-66
2022/07/13 01:57:28;;;;;;;3.53;2.00;;;;;;;19.32;51.95;100513.94;10468281;28;20186;-66
2022/07/13 02:02:30;;;;;;;4.40;1.98;;;;;;;19.21;51.99;100519.34;10469438;28;20080;-66
2022/07/13 02:07:32;;;;;;;5.30;2.17;;;;;;;19.14;52.35;100504.94;10475118;28;20052;-66
2022/07/13 02:12:34;;;;;;;5.05;2.30;;;;;;;19.11;52.47;100499.91;10439061;28;20779;-66
2022/07/13 02:17:36;;;;;;;4.30;2.10;;;;;;;18.90;53.00;100495.56;10474523;28;20472;-66
2022/07/13 02:22:42;;;;;;;3.63;1.90;;;;;;;19.06;52.65;100485.34;10472478;28;20315;-65
2022/07/13 02:27:46;;;;;;;4.75;2.00;;;;;;;19.13;52.40;100484.72;10444653;28;20133;-67
2022/07/13 02:32:48;;;;;;;5.70;2.20;;;;;;;19.20;52.45;100485.00;10452408;28;20050;-66
2022/07/13 02:37:49;;;;;;;4.70;2.75;;;;;;;19.17;52.93;100477.31;10471700;28;20087;-67
2022/07/13 02:42:51;;;;;;;3.75;2.20;;;;;;;18.75;53.34;100478.34;10471258;28;20132;-67
2022/07/13 02:47:53;;;;;;;4.47;2.10;;;;;;;18.69;53.77;100494.75;10471704;28;20056;-68
2022/07/13 02:52:55;;;;;;;3.72;2.03;;;;;;;18.87;53.42;100496.66;10471090;28;20402;-67
2022/07/13 02:58:00;;;;;;;4.43;2.25;;;;;;;18.99;53.54;100494.78;10453558;28;20515;-65
2022/07/13 03:03:01;;;;;;;3.92;2.10;;;;;;;18.90;53.66;100490.25;10467653;28;20052;-68
2022/07/13 03:08:04;;;;;;;4.95;2.20;;;;;;;18.90;53.56;100479.66;10467748;28;20076;-68
2022/07/13 03:13:06;;;;;;;6.38;2.58;;;;;;;18.70;54.48;100477.88;10459190;28;20199;-68
2022/07/13 03:18:08;;;;;;;3.58;2.33;;;;;;;18.41;54.87;100477.66;10455616;28;20144;-67
2022/07/13 03:23:10;;;;;;;3.50;2.10;;;;;;;18.55;54.76;100464.09;10462989;28;20098;-68
2022/07/13 03:28:11;;;;;;;4.60;2.10;;;;;;;18.74;54.28;100471.34;10457516;28;20131;-68
2022/07/13 03:33:13;;;;;;;4.45;2.20;;;;;;;18.87;54.25;100471.97;10461429;28;20040;-67
2022/07/13 03:38:15;;;;;;;4.88;2.25;;;;;;;18.97;53.84;100473.69;10467569;28;20198;-68
2022/07/13 03:43:17;;;;;;;4.38;2.20;;;;;;;18.88;54.01;100463.91;10470064;28;20050;-67
2022/07/13 03:48:19;;;;;;;2.97;2.20;;;;;;;18.92;54.24;100467.09;10472759;28;20144;-67
2022/07/13 03:53:20;;;;;;;4.75;2.10;;;;;;;18.91;54.52;100465.44;10472490;28;20524;-67
2022/07/13 03:58:22;;;;;;;3.05;2.08;;;;;;;19.02;54.19;100468.88;10461596;28;20049;-67
2022/07/13 04:03:24;;;;;;;4.75;2.15;;;;;;;19.05;53.90;100463.31;10470574;28;20179;-67
2022/07/13 04:08:26;;;;;;;7.95;2.38;;;;;;;19.05;53.82;100462.47;10471697;28;20051;-67
2022/07/13 04:13:27;;;;;;;3.67;2.15;;;;;;;19.12;53.88;100450.34;10469257;28;20144;-67
2022/07/13 04:18:29;;;;;;;3.90;2.10;;;;;;;19.12;53.67;100445.91;10471750;28;20087;-67
2022/07/13 04:23:31;;;;;;;4.63;2.10;;;;;;;19.13;53.72;100444.09;10467524;28;20148;-67
2022/07/13 04:28:33;;;;;;;3.90;2.35;;;;;;;19.23;53.78;100443.16;10444366;28;20161;-67
2022/07/13 04:33:34;;;;;;;3.55;2.30;;;;;;;19.15;53.82;100450.94;10445318;28;20143;-68
2022/07/13 04:38:43;;;;;;;3.40;2.05;;;;;;;19.11;53.97;100459.28;10466014;28;20048;-67
2022/07/13 04:43:45;;;;;;;3.08;2.13;;;;;;;19.06;54.23;100459.69;10467816;28;20561;-67
2022/07/13 04:48:47;;;;;;;4.03;2.10;;;;;;;19.17;53.75;100443.69;10469483;28;20154;-67
2022/07/13 04:53:49;;;;;;;4.78;2.10;;;;;;;19.46;53.14;100446.41;10469840;28;20044;-67
2022/07/13 04:58:51;;;;;;;3.00;2.20;;;;;;;19.55;52.95;100450.91;10470448;28;20121;-66
2022/07/13 05:03:53;;;;;;;3.17;2.28;;;;;;;19.81;52.40;100445.94;10450471;28;20767;-66
2022/07/13 05:08:54;;;;;;;5.68;2.25;;;;;;;19.90;52.50;100456.59;10467851;28;20100;-67
2022/07/13 05:13:56;;;;;;;3.58;2.25;;;;;;;19.99;52.21;100450.44;10468428;28;20441;-67
2022/07/13 05:18:58;;;;;;;5.85;2.42;;;;;;;19.75;52.59;100462.41;10467939;28;20573;-67
2022/07/13 05:24:00;;;;;;;3.65;2.20;;;;;;;19.65;52.64;100462.41;10464127;28;20128;-66
2022/07/13 05:29:04;;;;;;;3.17;2.05;;;;;;;19.92;52.34;100459.13;10460582;28;20143;-67
2022/07/13 05:34:06;;;;;;;4.60;2.17;;;;;;;20.06;52.01;100450.75;10465726;28;20134;-67
2022/07/13 05:39:08;;;;;;;4.40;2.28;;;;;;;20.40;51.78;100448.50;10466606;28;20434;-67
2022/07/13 05:44:10;;;;;;;4.72;2.13;;;;;;;20.53;51.42;100439.25;10465845;28;20048;-67
2022/07/13 05:49:11;;;;;;;5.20;2.33;;;;;;;20.61;51.16;100447.38;10466981;28;20131;-67
2022/07/13 05:54:13;;;;;;;5.18;2.25;;;;;;;20.87;50.45;100453.72;10443166;28;20149;-68
2022/07/13 05:59:35;;;;;;;4.68;2.20;;;;;;;21.03;49.90;100440.66;10466312;28;20049;-68
2022/07/13 06:04:38;;;;;;;5.25;2.10;;;;;;;20.82;50.25;100442.72;10465880;28;20709;-67
2022/07/13 06:09:39;;;;;;;3.38;2.13;;;;;;;21.11;48.84;100441.75;10467849;28;20322;-66
2022/07/13 06:14:41;;;;;;;5.85;2.20;;;;;;;21.27;48.83;100445.47;10467926;28;20492;-67
2022/07/13 06:19:43;;;;;;;5.75;1.90;;;;;;;21.51;48.12;100442.28;10467750;28;20548;-67
2022/07/13 06:24:45;;;;;;;3.20;2.20;;;;;;;21.68;47.25;100438.81;10445901;28;20151;-67
2022/07/13 06:29:46;;;;;;;2.95;1.75;;;;;;;22.25;47.69;100438.38;10466381;28;20106;-67
2022/07/13 06:34:48;;;;;;;6.78;1.90;;;;;;;22.66;47.07;100436.84;10467452;28;20119;-66
2022/07/13 06:39:50;;;;;;;4.85;1.98;;;;;;;22.90;46.93;100430.88;10467143;28;20075;-66
2022/07/13 06:44:51;;;;;;;4.68;2.40;;;;;;;22.83;45.95;100429.84;10447301;28;20084;-67
2022/07/13 06:49:53;;;;;;;8.73;2.78;;;;;;;22.79;45.76;100431.16;10466367;28;20131;-66
2022/07/13 06:54:55;;;;;;;3.78;2.45;;;;;;;22.58;45.62;100429.66;10466608;28;20303;-66
2022/07/13 06:59:56;;;;;;;7.40;2.80;;;;;;;22.49;45.56;100429.75;10465280;28;20313;-67
2022/07/13 07:04:58;;;;;;;7.45;2.58;;;;;;;22.49;45.54;100430.59;10460751;28;20056;-68
2022/07/13 07:10:00;;;;;;;5.57;2.38;;;;;;;22.51;45.83;100425.97;10466764;28;20460;-67
2022/07/13 07:15:02;;;;;;;5.15;2.40;;;;;;;22.44;46.49;100435.56;10471153;28;20455;-67
2022/07/13 07:20:06;;;;;;;5.47;2.45;;;;;;;22.75;46.04;100424.44;10474749;28;20084;-67
2022/07/13 07:25:09;;;;;;;7.60;2.75;;;;;;;23.21;44.73;100427.53;10469360;28;20207;-67
2022/07/13 07:30:11;;;;;;;5.50;2.80;;;;;;;22.96;45.16;100422.25;10472546;28;20138;-67
2022/07/13 07:35:13;;;;;;;8.40;2.65;;;;;;;22.97;44.84;100429.25;10472694;28;20179;-67
2022/07/13 07:40:15;;;;;;;7.65;2.40;;;;;;;23.53;43.77;100429.53;10466330;28;20056;-67
2022/07/13 07:45:16;;;;;;;5.95;2.35;;;;;;;23.79;43.18;100430.25;10473036;28;20629;-67
2022/07/13 07:50:19;;;;;;;5.68;2.08;;;;;;;24.05;42.78;100424.75;10472184;28;20139;-68
2022/07/13 07:55:21;;;;;;;4.93;2.30;;;;;;;23.91;42.66;100420.06;10470356;28;20510;-67
2022/07/13 08:00:23;;;;;;;7.07;2.47;;;;;;;23.97;42.86;100417.59;10468699;28;20048;-67
2022/07/13 08:05:24;;;;;;;7.85;2.10;;;;;;;24.05;43.37;100417.59;10467811;28;20431;-67
2022/07/13 08:10:27;;;;;;;9.95;2.25;;;;;;;23.99;43.37;100418.25;10466362;28;20052;-67
2022/07/13 08:15:30;;;;;;;7.20;2.25;;;;;;;24.09;42.67;100416.28;10448785;28;20504;-67
2022/07/13 08:20:32;;;;;;;6.50;2.10;;;;;;;24.69;42.13;100407.88;10466215;28;20447;-67
2022/07/13 08:25:34;;;;;;;5.63;2.33;;;;;;;25.27;40.87;100392.31;10439101;28;20051;-67
2022/07/13 08:30:37;;;;;;;7.20;2.30;;;;;;;25.71;39.90;100397.97;10458387;28;20376;-67
2022/07/13 08:41:00;;;;;;;5.63;2.20;;;;;;;27.39;37.27;100390.13;10464779;28;20053;-67
2022/07/13 08:46:03;;;;;;;5.95;2.03;;;;;;;27.36;37.08;100382.41;10465762;28;20575;-67
2022/07/13 08:51:06;;;;;;;5.05;2.00;;;;;;;27.64;36.54;100377.16;10460251;28;20057;-67
2022/07/13 08:56:08;;;;;;;5.78;2.08;;;;;;;27.82;36.58;100366.00;10454683;28;20045;-67
2022/07/13 09:01:11;;;;;;;6.60;2.20;;;;;;;28.26;35.64;100350.44;10459879;28;20079;-67
2022/07/13 09:06:39;;;;;;;6.03;1.70;;;;;;;27.93;35.38;100344.78;10452767;28;20488;-67
2022/07/13 09:11:40;;;;;;;8.02;1.60;;;;;;;28.00;36.01;100347.53;10435365;28;20088;-67
2022/07/13 09:16:47;;;;;;;3.03;1.63;;;;;;;28.18;35.53;100342.50;10462244;28;20056;-67
2022/07/13 09:21:49;;;;;;;3.20;1.60;;;;;;;28.80;34.50;100346.06;10468838;28;20151;-66
2022/07/13 09:26:52;;;;;;;7.53;1.70;;;;;;;30.11;31.96;100332.19;10468205;28;20148;-67
2022/07/13 09:31:55;;;;;;;4.35;1.50;;;;;;;31.55;28.92;100327.19;10467099;28;20123;-67
2022/07/13 09:37:24;;;;;;;3.42;1.48;;;;;;;33.02;26.45;100323.53;10448596;28;20044;-67
2022/07/13 09:42:27;;;;;;;5.00;1.60;;;;;;;33.39;25.05;100316.16;10466949;28;20307;-67
2022/07/13 09:47:29;;;;;;;3.70;1.30;;;;;;;33.66;24.44;100317.44;10467252;28;20088;-68
2022/07/13 09:52:31;;;;;;;3.60;1.40;;;;;;;33.19;24.52;100312.06;10467297;28;20397;-81
2022/07/13 09:57:51;;;;;;;1.80;1.20;;;;;;;32.99;24.04;100305.03;10443035;28;20656;-78
2022/07/13 10:03:06;;;;;;;5.03;1.25;;;;;;;33.04;23.31;100301.66;10418861;28;20230;-79
2022/07/13 10:08:09;;;;;;;3.20;1.20;;;;;;;32.46;23.80;100306.66;10425167;28;20589;-79
2022/07/13 10:13:12;;;;;;;7.57;1.60;;;;;;;32.07;24.22;100318.69;10433117;28;20056;-80
2022/07/13 10:18:35;;;;;;;5.00;1.20;;;;;;;31.51;24.53;100320.56;10403892;28;20053;-80
2022/07/13 10:23:40;;;;;;;3.65;1.25;;;;;;;31.13;24.92;100314.31;10424770;28;20057;-78
2022/07/13 10:29:04;;;;;;;2.88;1.20;;;;;;;31.10;25.33;100310.16;10422118;28;20502;-79
2022/07/13 10:34:09;;;;;;;3.90;1.60;;;;;;;31.69;24.45;100309.81;10405774;28;20057;-79
2022/07/13 10:39:11;;;;;;;2.38;1.30;;;;;;;32.45;23.29;100301.47;10439940;28;20141;-79
2022/07/13 10:44:30;;;;;;;3.33;1.40;;;;;;;32.52;22.15;100294.13;10432443;28;20049;-79
2022/07/13 10:49:32;;;;;;;4.45;1.30;;;;;;;32.25;22.39;100288.13;10397052;28;20461;-79
2022/07/13 10:54:34;;;;;;;3.65;1.10;;;;;;;32.41;21.56;100286.72;10421551;28;20657;-79
2022/07/13 10:59:48;;;;;;;3.20;1.30;;;;;;;32.52;21.16;100276.00;10422806;28;20041;-78
2022/07/13 11:04:55;;;;;;;6.10;1.20;;;;;;;32.49;21.53;100268.34;10418151;28;20099;-78
2022/07/13 11:10:14;;;;;;;2.05;1.20;;;;;;;32.36;20.70;100283.84;10411264;28;20805;-79
2022/07/13 11:15:18;;;;;;;;;;;;;;;32.08;21.42;100266.25;10398403;28;20839;-78
2022/07/13 11:20:21;;;;;;;4.40;1.10;;;;;;;32.70;19.48;100259.72;10375732;28;19924;-79
2022/07/13 11:25:26;;;;;;;5.03;1.20;;;;;;;32.92;19.53;100260.09;10378220;28;20057;-79
2022/07/13 11:30:34;;;;;;;2.85;1.05;;;;;;;32.78;18.96;100242.34;10390488;28;20506;-78
2022/07/13 11:35:37;;;;;;;3.85;1.17;;;;;;;32.82;19.00;100249.78;10408673;28;20403;-78
2022/07/13 11:40:41;;;;;;;1.58;1.08;;;;;;;32.77;17.45;100237.97;10407012;28;20104;-79
2022/07/13 11:45:43;;;;;;;1.63;0.95;;;;;;;32.31;17.99;100232.28;10363268;28;20602;-79
2022/07/13 11:50:50;;;;;;;2.38;1.10;;;;;;;32.43;17.62;100217.75;10387070;28;20576;-79
2022/07/13 11:55:54;;;;;;;4.95;1.05;;;;;;;32.51;18.01;100211.25;10383940;28;20056;-79
2022/07/13 12:00:57;;;;;;;2.13;1.20;;;;;;;32.54;18.08;100206.19;10367403;28;20877;-79
2022/07/13 12:06:11;;;;;;;2.72;1.10;;;;;;;32.64;18.55;100205.63;10360109;28;20104;-78
2022/07/13 12:11:16;;;;;;;2.28;1.10;;;;;;;32.62;18.88;100191.50;10378604;28;20060;-79
2022/07/13 12:16:19;;;;;;;4.25;1.10;;;;;;;32.62;19.25;100189.63;10365216;28;20099;-79
2022/07/13 12:21:21;;;;;;;4.22;1.30;;;;;;;32.50;19.49;100187.91;10388336;28;20057;-79
2022/07/13 12:26:26;;;;;;;2.80;1.20;;;;;;;32.57;18.96;100186.78;10393628;28;20096;-79
2022/07/13 12:31:31;;;;;;;3.67;1.13;;;;;;;32.62;19.79;100177.97;10408301;28;20049;-79
2022/07/13 12:36:37;;;;;;;4.18;1.20;;;;;;;32.76;19.71;100166.72;10372917;28;20077;-79
2022/07/13 12:41:42;;;;;;;2.88;1.20;;;;;;;32.83;19.83;100163.91;10375552;28;20128;-79
2022/07/13 12:46:59;;;;;;;3.38;1.20;;;;;;;32.86;19.03;100168.91;10375544;28;20053;-79
2022/07/13 12:52:11;;;;;;;3.85;1.20;;;;;;;32.90;18.98;100149.22;10406212;28;20053;-79
2022/07/13 12:57:24;;;;;;;1.45;1.10;;;;;;;32.71;19.49;100147.63;10392896;28;20058;-79
2022/07/13 13:02:29;;;;;;;4.95;1.17;;;;;;;32.86;19.91;100145.31;10392197;28;20743;-79
2022/07/13 13:07:34;;;;;;;2.50;1.40;;;;;;;32.81;19.87;100137.06;10406633;28;20525;-78
2022/07/13 13:12:38;;;;;;;2.85;1.30;;;;;;;33.03;19.27;100129.25;10389871;28;20049;-79
2022/07/13 13:17:40;;;;;;;4.53;1.25;;;;;;;33.27;19.26;100119.28;10371352;28;20135;-79
2022/07/13 13:22:42;;;;;;;2.53;1.02;;;;;;;33.25;19.69;100119.50;10370832;28;20049;-79
2022/07/13 13:27:44;;;;;;;5.15;1.40;;;;;;;33.37;19.32;100105.97;10368473;28;20114;-79
2022/07/13 13:33:03;;;;;;;4.93;1.20;;;;;;;33.62;19.50;100085.69;10372411;28;20204;-78
2022/07/13 13:38:07;;;;;;;1.65;1.10;;;;;;;33.71;19.05;100076.16;10381354;28;20053;-79
2022/07/13 13:43:11;;;;;;;3.55;1.40;;;;;;;33.35;18.71;100057.38;10371162;28;20057;-79
2022/07/13 13:48:13;;;;;;;9.70;1.48;;;;;;;33.61;18.87;100078.59;10360140;28;20132;-79
2022/07/13 13:53:15;;;;;;;4.63;1.20;;;;;;;33.92;18.58;100063.00;10368270;28;20584;-79
2022/07/13 13:58:17;;;;;;;5.35;1.70;;;;;;;33.77;18.57;100074.34;10367650;28;20049;-79
2022/07/13 14:03:21;;;;;;;4.25;1.10;;;;;;;33.62;18.37;100066.72;10400031;28;20495;-80
2022/07/13 14:08:27;;;;;;;2.92;1.30;;;;;;;33.70;18.94;100051.94;10371245;28;20076;-79
2022/07/13 14:13:34;;;;;;;3.92;1.23;;;;;;;33.93;18.51;100053.78;10371973;28;20103;-79
2022/07/13 14:18:36;;;;;;;2.83;1.38;;;;;;;34.13;18.01;100046.06;10388225;28;20057;-79
2022/07/13 14:23:39;;;;;;;6.38;1.50;;;;;;;34.39;18.09;100040.88;10377651;28;20048;-79
2022/07/13 14:29:03;;;;;;;5.25;1.30;;;;;;;34.03;18.24;100040.44;10393542;28;20064;-79
2022/07/13 14:34:07;;;;;;;2.75;1.25;;;;;;;33.93;18.18;100032.94;10363819;28;20100;-79
2022/07/13 14:39:09;;;;;;;3.13;0.90;;;;;;;33.61;18.95;100042.53;10388631;28;20579;-79
2022/07/13 14:44:13;;;;;;;2.40;1.20;;;;;;;33.81;18.60;100032.94;10394302;28;20095;-79
2022/07/13 14:49:28;;;;;;;3.50;1.20;;;;;;;33.68;18.28;100011.50;10379371;28;20057;-79
2022/07/13 14:54:51;;;;;;;5.47;1.30;;;;;;;33.51;19.07;100007.88;10405072;28;20045;-79
2022/07/13 15:00:27;;;;;;;2.08;1.10;;;;;;;33.60;18.62;100008.31;10410137;28;20057;-79
2022/07/13 15:05:32;;;;;;;4.82;1.15;;;;;;;33.71;19.24;100005.63;10393806;28;20049;-80
2022/07/13 15:10:46;;;;;;;4.60;1.23;;;;;;;34.05;18.14;99994.88;10366701;28;20558;-81
2022/07/13 15:15:48;;;;;;;3.63;1.23;;;;;;;34.33;18.31;99989.44;10371674;28;20055;-81
2022/07/13 15:20:51;;;;;;;7.20;1.33;;;;;;;34.48;18.14;99981.59;10378819;28;20053;-79
2022/07/13 15:25:53;;;;;;;7.78;1.40;;;;;;;34.10;17.95;99970.56;10410290;28;20495;-81
2022/07/13 15:30:55;;;;;;;6.55;1.10;;;;;;;33.87;18.25;99973.34;10368495;28;20076;-81
2022/07/13 15:36:03;;;;;;;5.50;1.27;;;;;;;33.84;18.10;99980.06;10393916;28;20052;-81
2022/07/13 15:41:24;;;;;;;7.53;1.55;;;;;;;33.74;19.43;99980.69;10374413;28;20103;-81
2022/07/13 15:46:28;;;;;;;8.00;1.73;;;;;;;33.54;20.08;99977.56;10390846;28;20061;-81
2022/07/13 15:51:31;;;;;;;10.75;1.90;;;;;;;33.55;20.77;99976.50;10409064;28;20132;-81
2022/07/13 15:56:36;;;;;;;5.20;2.03;;;;;;;33.54;21.04;99974.88;10346547;28;20056;-82
2022/07/13 16:01:45;;;;;;;5.10;1.98;;;;;;;33.30;21.05;99973.22;10385226;28;20054;-81
2022/07/13 16:06:47;;;;;;;8.45;2.00;;;;;;;33.50;21.64;99967.44;10362811;28;20046;-81
2022/07/13 16:11:49;;;;;;;7.80;1.85;;;;;;;33.32;21.51;99970.28;10352927;28;20124;-81
2022/07/13 16:16:53;;;;;;;7.43;1.80;;;;;;;32.78;22.17;99979.59;10385049;28;20046;-81
2022/07/13 16:21:58;;;;;;;8.90;1.90;;;;;;;32.21;22.71;99990.03;10383324;28;20287;-80
2022/07/13 16:27:02;;;;;;;5.05;1.80;;;;;;;32.04;23.29;99977.38;10354749;28;20050;-81
2022/07/13 16:32:14;;;;;;;6.47;1.88;;;;;;;32.06;23.23;99975.28;10348154;28;20156;-81
2022/07/13 16:37:25;;;;;;;9.73;1.95;;;;;;;31.88;23.43;99973.38;10353664;28;20086;-81
2022/07/13 16:42:27;;;;;;;8.77;1.90;;;;;;;31.97;23.65;99980.16;10385283;28;20119;-81
2022/07/13 16:47:30;;;;;;;7.68;2.03;;;;;;;31.85;23.69;99973.84;10354674;28;20061;-81
2022/07/13 16:52:32;;;;;;;7.55;2.17;;;;;;;31.76;24.01;99979.81;10352190;28;20053;-81
2022/07/13 16:57:34;;;;;;;7.72;1.90;;;;;;;31.72;24.19;100001.06;10383570;28;20100;-81
2022/07/13 17:03:06;;;;;;;10.95;1.90;;;;;;;31.61;24.62;100007.25;10379655;28;20049;-80
2022/07/13 17:08:08;;;;;;;8.65;1.80;;;;;;;31.52;24.33;100010.47;10353634;28;20049;-81
2022/07/13 17:13:10;;;;;;;9.93;2.00;;;;;;;31.56;24.79;100023.31;10383326;28;20057;-81
2022/07/13 17:18:12;;;;;;;5.28;1.42;;;;;;;31.45;25.10;100029.44;10352885;28;20045;-81
2022/07/13 17:23:16;;;;;;;9.65;1.70;;;;;;;31.32;25.32;100026.88;10350450;28;20460;-80
2022/07/13 17:28:21;;;;;;;5.38;1.67;;;;;;;31.18;25.79;100020.78;10384756;28;20120;-81
2022/07/13 17:33:32;;;;;;;9.57;1.73;;;;;;;30.87;26.52;100030.78;10381469;28;20112;-81
2022/07/13 17:38:35;;;;;;;8.05;1.70;;;;;;;30.76;27.01;100036.91;10382070;28;20710;-81
2022/07/13 17:43:37;;;;;;;9.38;1.80;;;;;;;30.63;27.05;100046.78;10349881;28;20480;-81
2022/07/13 17:48:39;;;;;;;6.60;1.80;;;;;;;30.21;27.38;100047.44;10384495;28;20054;-80
2022/07/13 17:53:40;;;;;;;6.90;1.80;;;;;;;30.09;27.57;100032.94;10353897;28;20097;-80
2022/07/13 17:58:47;;;;;;;8.35;2.05;;;;;;;29.93;27.86;100051.50;10374794;28;20045;-80
2022/07/13 18:03:53;;;;;;;3.42;1.50;;;;;;;30.01;28.01;100052.06;10372957;28;20151;-80
2022/07/13 18:08:56;;;;;;;6.90;1.70;;;;;;;30.00;27.99;100063.91;10391984;28;20136;-81
2022/07/13 18:14:00;;;;;;;7.70;1.77;;;;;;;29.91;28.25;100062.44;10405817;28;20045;-81
2022/07/13 18:19:03;;;;;;;7.15;2.00;;;;;;;29.74;28.81;100063.97;10394125;28;20053;-81
2022/07/13 18:24:09;;;;;;;7.57;1.77;;;;;;;29.51;29.48;100066.31;10381631;28;20060;-81
2022/07/13 18:29:11;;;;;;;6.00;1.83;;;;;;;29.36;29.64;100071.09;10413774;28;20057;-81
2022/07/13 18:34:14;;;;;;;11.32;2.53;;;;;;;29.23;30.31;100074.63;10377462;28;20057;-81
2022/07/13 18:39:17;;;;;;;9.82;2.08;;;;;;;28.90;30.79;100082.69;10409335;28;20111;-79
2022/07/13 18:44:22;;;;;;;6.00;1.88;;;;;;;28.83;31.00;100081.81;10407220;28;20140;-79
2022/07/13 18:49:26;;;;;;;5.85;1.80;;;;;;;28.91;31.24;100081.66;10378005;28;20052;-79
2022/07/13 18:54:29;;;;;;;12.18;2.22;;;;;;;28.80;31.00;100089.50;10393032;28;20072;-79
2022/07/13 18:59:32;;;;;;;4.75;1.95;;;;;;;28.58;31.27;100096.06;10409129;28;20060;-79
2022/07/13 19:04:35;;;;;;;5.40;1.90;;;;;;;28.51;31.57;100103.28;10394561;28;20050;-79
2022/07/13 19:09:37;;;;;;;4.88;1.95;;;;;;;28.43;31.71;100116.94;10393835;28;20061;-79
2022/07/13 19:14:41;;;;;;;9.10;2.10;;;;;;;28.25;31.79;100117.47;10377336;28;20053;-80
2022/07/13 19:19:44;;;;;;;4.47;1.85;;;;;;;28.15;31.65;100125.09;10369908;28;20053;-80
2022/07/13 19:30:07;;;;;;;4.00;1.92;;;;;;;27.66;31.88;100137.78;10395546;28;20057;-80
2022/07/13 19:35:15;;;;;;;6.45;2.03;;;;;;;27.60;31.92;100143.94;10397552;28;20045;-80
2022/07/13 19:40:21;;;;;;;6.88;1.90;;;;;;;27.36;32.21;100153.28;10395461;28;20053;-79
2022/07/13 19:45:33;;;;;;;7.63;2.22;;;;;;;27.13;32.71;100160.69;10410350;28;20080;-80
2022/07/13 19:50:35;;;;;;;4.78;1.90;;;;;;;26.99;32.83;100170.47;10373842;28;20060;-80
2022/07/13 19:55:37;;;;;;;6.22;1.85;;;;;;;26.92;33.42;100179.47;10369109;28;20084;-80
2022/07/13 20:00:40;;;;;;;7.72;2.13;;;;;;;26.79;33.54;100185.56;10396255;28;20053;-79
2022/07/13 20:05:42;;;;;;;3.47;1.95;;;;;;;26.62;34.36;100186.78;10411328;28;20384;-79
2022/07/13 20:10:43;;;;;;;6.82;2.28;;;;;;;26.42;34.22;100196.41;10395386;28;20053;-80
2022/07/13 20:15:45;;;;;;;4.05;1.80;;;;;;;26.40;35.00;100198.44;10372868;28;20060;-79
2022/07/13 20:20:47;;;;;;;6.65;2.15;;;;;;;26.21;35.46;100201.69;10374869;28;20099;-79
2022/07/13 20:25:49;;;;;;;9.55;2.00;;;;;;;26.18;35.35;100200.22;10388143;28;20158;-80
2022/07/13 20:30:53;;;;;;;8.65;2.03;;;;;;;26.16;35.74;100206.78;10369913;28;20420;-79
2022/07/13 20:35:56;;;;;;;6.18;1.90;;;;;;;26.11;36.19;100214.53;10408045;28;20053;-79
2022/07/13 20:40:58;;;;;;;4.88;2.17;;;;;;;25.96;36.02;100208.38;10410198;28;20053;-82
2022/07/13 20:46:00;;;;;;;5.53;1.90;;;;;;;25.59;36.17;100212.69;10396549;28;20045;-80
2022/07/13 20:51:03;;;;;;;9.02;2.10;;;;;;;25.47;36.65;100213.28;10409482;28;20211;-80
2022/07/13 20:56:05;;;;;;;5.05;1.75;;;;;;;25.54;36.57;100217.78;10375486;28;20068;-80
2022/07/13 21:01:07;;;;;;;4.75;1.90;;;;;;;25.55;36.36;100216.75;10390327;28;20065;-80
2022/07/13 21:06:09;;;;;;;6.82;2.00;;;;;;;25.39;36.86;100218.72;10374438;28;20107;-81
2022/07/13 21:11:12;;;;;;;6.28;2.10;;;;;;;25.34;37.16;100213.09;10410507;28;20115;-81
2022/07/13 21:16:13;;;;;;;5.57;1.98;;;;;;;25.15;37.40;100211.69;10393717;28;20479;-80
2022/07/13 21:21:15;;;;;;;3.92;2.00;;;;;;;24.89;37.92;100217.38;10378041;28;20050;-80
2022/07/13 21:26:17;;;;;;;5.88;2.10;;;;;;;24.69;38.36;100226.84;10394232;28;20465;-80
2022/07/13 21:31:19;;;;;;;7.93;2.05;;;;;;;24.71;38.31;100227.53;10409831;28;20049;-80
2022/07/13 21:36:21;;;;;;;5.35;2.05;;;;;;;24.71;39.33;100219.50;10394322;28;20064;-80
2022/07/13 21:41:23;;;;;;;5.28;1.92;;;;;;;24.67;39.93;100220.81;10393980;28;21073;-80
2022/07/13 21:46:25;;;;;;;4.68;2.53;;;;;;;24.69;39.44;100226.84;10392971;28;20487;-80
2022/07/13 21:51:28;;;;;;;5.60;1.90;;;;;;;24.65;39.51;100227.34;10408414;28;20235;-80
2022/07/13 21:56:29;;;;;;;6.75;1.85;;;;;;;24.57;39.11;100224.72;10408944;28;20467;-80
2022/07/13 22:01:31;;;;;;;5.53;2.00;;;;;;;24.45;39.44;100218.09;10407642;28;20045;-80
2022/07/13 22:06:37;;;;;;;5.70;1.90;;;;;;;24.28;39.71;100209.28;10390425;28;20073;-79
2022/07/13 22:12:17;;;;;;;6.07;1.90;;;;;;;24.24;39.28;100211.50;10343628;28;20056;-80
2022/07/13 22:17:38;;;;;;;;;;;;;;;23.89;40.22;100211.03;10394047;28;20060;-80
2022/07/13 22:22:58;;;;;;;;;;;;;;;23.59;40.96;100209.06;10367341;28;19928;-79
2022/07/13 22:28:38;;;;;;;4.78;2.17;;;;;;;23.76;40.78;100213.41;10408594;28;19925;-80
2022/07/13 22:34:17;;;;;;;3.55;2.13;;;;;;;23.82;40.89;100213.53;10393124;28;20064;-80
2022/07/13 22:39:56;;;;;;;3.92;2.05;;;;;;;23.68;41.41;100214.22;10391727;28;20103;-79
2022/07/13 22:45:35;;;;;;;5.28;2.30;;;;;;;23.50;42.01;100213.59;10393205;28;20049;-79
2022/07/13 22:51:15;;;;;;;3.85;2.10;;;;;;;23.23;42.52;100206.72;10374492;28;20058;-79
2022/07/13 22:56:54;;;;;;;6.43;2.17;;;;;;;23.24;42.73;100205.72;10392583;28;20061;-80
2022/07/13 23:02:33;;;;;;;6.68;2.20;;;;;;;23.31;42.51;100203.19;10393920;28;20095;-80
2022/07/13 23:08:12;;;;;;;6.53;2.08;;;;;;;23.28;42.59;100203.53;10400275;28;20049;-80
2022/07/13 23:13:52;;;;;;;8.20;2.17;;;;;;;23.17;42.86;100204.69;10375946;28;20104;-80
2022/07/13 23:19:31;;;;;;;3.88;2.10;;;;;;;22.99;43.38;100204.00;10382156;28;20108;-79
2022/07/13 23:25:10;;;;;;;5.03;2.25;;;;;;;22.94;43.28;100194.84;10397938;28;20045;-79
2022/07/13 23:30:48;;;;;;;6.47;2.20;;;;;;;22.66;44.12;100197.75;10398837;28;20404;-79
2022/07/13 23:35:51;;;;;;;4.00;2.00;;;;;;;22.81;43.66;100184.66;10399354;28;20458;-79
2022/07/13 23:40:52;;;;;;;7.93;2.17;;;;;;;22.80;43.50;100187.50;10414537;28;20458;-79